sensor_id;sensor_type;location;lat;lon;timestamp;temperature;humidity
18191;DHT22;47004;51.366;12.348;2023-02-28T00:00:31;0.30;99.90
18191;DHT22;47004;51.366;12.348;2023-02-28T00:02:33;0.30;99.90
18191;DHT22;47004;51.366;12.348;2023-02-28T00:04:36;0.30;99.90
18191;DHT22;47004;51.366;12.348;2023-02-28T00:06:38;0.30;99.90
18191;DHT22;47004;51.366;12.348;2023-02-28T00:08:40;0.20;99.90
18191;DHT22;47004;51.366;12.348;2023-02-28T00:10:42;0.20;99.90
18191;DHT22;47004;51.366;12.348;2023-02-28T00:12:44;0.30;99.90
18191;DHT22;47004;51.366;12.348;2023-02-28T00:14:46;0.30;99.90
18191;DHT22;47004;51.366;12.348;2023-02-28T00:16:48;0.30;99.90
18191;DHT22;47004;51.366;12.348;2023-02-28T00:18:50;0.30;99.90
18191;DHT22;47004;51.366;12.348;2023-02-28T00:20:53;0.20;99.90
18191;DHT22;47004;51.366;12.348;2023-02-28T00:22:55;0.20;99.90
18191;DHT22;47004;51.366;12.348;2023-02-28T00:24:57;0.20;99.90
18191;DHT22;47004;51.366;12.348;2023-02-28T00:26:59;0.20;99.90
18191;DHT22;47004;51.366;12.348;2023-02-28T00:29:01;0.30;99.90
18191;DHT22;47004;51.366;12.348;2023-02-28T00:31:03;0.30;99.90
18191;DHT22;47004;51.366;12.348;2023-02-28T00:33:06;0.20;99.90
18191;DHT22;47004;51.366;12.348;2023-02-28T00:35:08;0.30;99.90
18191;DHT22;47004;51.366;12.348;2023-02-28T00:37:12;0.20;99.90
18191;DHT22;47004;51.366;12.348;2023-02-28T00:39:14;0.20;99.90
18191;DHT22;47004;51.366;12.348;2023-02-28T00:41:16;0.20;99.90
18191;DHT22;47004;51.366;12.348;2023-02-28T00:43:18;0.20;99.90
18191;DHT22;47004;51.366;12.348;2023-02-28T00:45:20;0.20;99.90
18191;DHT22;47004;51.366;12.348;2023-02-28T00:47:22;0.20;99.90
18191;DHT22;47004;51.366;12.348;2023-02-28T00:49:24;0.20;99.90
18191;DHT22;47004;51.366;12.348;2023-02-28T00:51:26;0.20;99.90
18191;DHT22;47004;51.366;12.348;2023-02-28T00:53:30;0.20;99.90
18191;DHT22;47004;51.366;12.348;2023-02-28T00:55:33;0.20;99.90
18191;DHT22;47004;51.366;12.348;2023-02-28T00:57:35;0.20;99.90
18191;DHT22;47004;51.366;12.348;2023-02-28T00:59:36;0.20;99.90
18191;DHT22;47004;51.366;12.348;2023-02-28T01:01:38;0.20;99.90
18191;DHT22;47004;51.366;12.348;2023-02-28T01:03:42;0.20;99.90
18191;DHT22;47004;51.366;12.348;2023-02-28T01:05:44;0.20;99.90
18191;DHT22;47004;51.366;12.348;2023-02-28T01:07:47;0.20;99.90
18191;DHT22;47004;51.366;12.348;2023-02-28T01:09:50;0.20;99.90
18191;DHT22;47004;51.366;12.348;2023-02-28T01:11:52;0.20;99.90
18191;DHT22;47004;51.366;12.348;2023-02-28T01:13:54;0.20;99.90
18191;DHT22;47004;51.366;12.348;2023-02-28T01:15:56;0.20;99.90
18191;DHT22;47004;51.366;12.348;2023-02-28T01:17:58;0.20;99.90
18191;DHT22;47004;51.366;12.348;2023-02-28T01:20:00;0.20;99.90
18191;DHT22;47004;51.366;12.348;2023-02-28T01:22:02;0.20;99.90
18191;DHT22;47004;51.366;12.348;2023-02-28T01:24:05;0.20;99.90
18191;DHT22;47004;51.366;12.348;2023-02-28T01:26:12;0.20;99.90
18191;DHT22;47004;51.366;12.348;2023-02-28T01:28:14;0.20;99.90
18191;DHT22;47004;51.366;12.348;2023-02-28T01:30:16;0.20;99.90
18191;DHT22;47004;51.366;12.348;2023-02-28T01:32:18;0.20;99.90
18191;DHT22;47004;51.366;12.348;2023-02-28T01:34:20;0.20;99.90
18191;DHT22;47004;51.366;12.348;2023-02-28T01:36:23;0.20;99.90
18191;DHT22;47004;51.366;12.348;2023-02-28T01:38:26;0.20;99.90
18191;DHT22;47004;51.366;12.348;2023-02-28T01:40:28;0.50;99.90
18191;DHT22;47004;51.366;12.348;2023-02-28T01:42:31;0.20;99.90
18191;DHT22;47004;51.366;12.348;2023-02-28T01:44:56;0.20;99.90
18191;DHT22;47004;51.366;12.348;2023-02-28T01:46:59;0.20;99.90
18191;DHT22;47004;51.366;12.348;2023-02-28T01:49:05;0.20;99.90
18191;DHT22;47004;51.366;12.348;2023-02-28T01:51:11;0.20;99.90
18191;DHT22;47004;51.366;12.348;2023-02-28T01:53:16;0.20;99.90
18191;DHT22;47004;51.366;12.348;2023-02-28T01:55:20;0.20;99.90
18191;DHT22;47004;51.366;12.348;2023-02-28T01:57:26;0.20;99.90
18191;DHT22;47004;51.366;12.348;2023-02-28T01:59:34;0.20;99.90
18191;DHT22;47004;51.366;12.348;2023-02-28T02:01:38;0.20;99.90
18191;DHT22;47004;51.366;12.348;2023-02-28T02:03:40;0.20;99.90
18191;DHT22;47004;51.366;12.348;2023-02-28T02:05:42;0.20;99.90
18191;DHT22;47004;51.366;12.348;2023-02-28T02:07:50;0.20;99.90
18191;DHT22;47004;51.366;12.348;2023-02-28T02:10:00;0.20;99.90
18191;DHT22;47004;51.366;12.348;2023-02-28T02:12:11;0.10;99.90
18191;DHT22;47004;51.366;12.348;2023-02-28T02:14:45;0.10;99.90
18191;DHT22;47004;51.366;12.348;2023-02-28T02:16:58;0.10;99.90
18191;DHT22;47004;51.366;12.348;2023-02-28T02:19:14;0.10;99.90
18191;DHT22;47004;51.366;12.348;2023-02-28T02:21:54;0.10;99.90
18191;DHT22;47004;51.366;12.348;2023-02-28T02:24:47;0.10;99.90
18191;DHT22;47004;51.366;12.348;2023-02-28T02:27:15;0.10;99.90
18191;DHT22;47004;51.366;12.348;2023-02-28T02:29:37;0.10;99.90
18191;DHT22;47004;51.366;12.348;2023-02-28T02:31:55;0.10;99.90
18191;DHT22;47004;51.366;12.348;2023-02-28T02:34:24;0.10;99.90
18191;DHT22;47004;51.366;12.348;2023-02-28T02:36:29;0.10;99.90
18191;DHT22;47004;51.366;12.348;2023-02-28T02:38:34;0.00;99.90
18191;DHT22;47004;51.366;12.348;2023-02-28T02:40:42;0.00;99.90
18191;DHT22;47004;51.366;12.348;2023-02-28T02:42:50;0.20;99.90
18191;DHT22;47004;51.366;12.348;2023-02-28T02:44:58;0.00;99.90
18191;DHT22;47004;51.366;12.348;2023-02-28T02:47:06;0.00;99.90
18191;DHT22;47004;51.366;12.348;2023-02-28T02:49:15;0.00;99.90
18191;DHT22;47004;51.366;12.348;2023-02-28T02:51:20;0.00;99.90
18191;DHT22;47004;51.366;12.348;2023-02-28T02:53:26;0.00;99.90
18191;DHT22;47004;51.366;12.348;2023-02-28T02:55:31;0.00;99.90
18191;DHT22;47004;51.366;12.348;2023-02-28T02:57:38;0.00;99.90
18191;DHT22;47004;51.366;12.348;2023-02-28T02:59:42;-0.10;99.90
18191;DHT22;47004;51.366;12.348;2023-02-28T03:01:44;-0.10;99.90
18191;DHT22;47004;51.366;12.348;2023-02-28T03:03:46;-0.10;99.90
18191;DHT22;47004;51.366;12.348;2023-02-28T03:05:50;-0.20;99.90
18191;DHT22;47004;51.366;12.348;2023-02-28T03:07:52;-0.20;99.90
18191;DHT22;47004;51.366;12.348;2023-02-28T03:09:56;-0.20;99.90
18191;DHT22;47004;51.366;12.348;2023-02-28T03:11:58;-0.30;99.90
18191;DHT22;47004;51.366;12.348;2023-02-28T03:14:20;-0.30;99.90
18191;DHT22;47004;51.366;12.348;2023-02-28T03:19:20;-0.40;99.90
18191;DHT22;47004;51.366;12.348;2023-02-28T03:21:29;-0.40;99.90
18191;DHT22;47004;51.366;12.348;2023-02-28T03:23:40;-0.40;99.90
18191;DHT22;47004;51.366;12.348;2023-02-28T03:25:52;-0.50;99.90
18191;DHT22;47004;51.366;12.348;2023-02-28T03:28:03;-0.50;99.90
18191;DHT22;47004;51.366;12.348;2023-02-28T03:30:11;-0.50;99.90
18191;DHT22;47004;51.366;12.348;2023-02-28T03:32:23;-0.60;99.90
18191;DHT22;47004;51.366;12.348;2023-02-28T03:34:29;-0.60;99.90
18191;DHT22;47004;51.366;12.348;2023-02-28T03:36:37;-0.60;99.90
18191;DHT22;47004;51.366;12.348;2023-02-28T03:38:46;-0.60;99.90
18191;DHT22;47004;51.366;12.348;2023-02-28T03:40:53;-0.70;99.90
18191;DHT22;47004;51.366;12.348;2023-02-28T03:43:02;-0.60;99.90
18191;DHT22;47004;51.366;12.348;2023-02-28T03:45:08;-0.70;99.90
18191;DHT22;47004;51.366;12.348;2023-02-28T03:47:14;-0.70;99.90
18191;DHT22;47004;51.366;12.348;2023-02-28T03:49:21;-0.70;99.90
18191;DHT22;47004;51.366;12.348;2023-02-28T03:51:25;-0.70;99.90
18191;DHT22;47004;51.366;12.348;2023-02-28T03:53:33;-0.80;99.90
18191;DHT22;47004;51.366;12.348;2023-02-28T03:55:39;-0.80;99.90
18191;DHT22;47004;51.366;12.348;2023-02-28T03:57:51;-0.80;99.90
18191;DHT22;47004;51.366;12.348;2023-02-28T03:59:59;-0.80;99.90
18191;DHT22;47004;51.366;12.348;2023-02-28T04:02:02;-0.80;99.90
18191;DHT22;47004;51.366;12.348;2023-02-28T04:04:04;-0.90;99.90
18191;DHT22;47004;51.366;12.348;2023-02-28T04:06:08;-0.80;99.90
18191;DHT22;47004;51.366;12.348;2023-02-28T04:08:14;-0.90;99.90
18191;DHT22;47004;51.366;12.348;2023-02-28T04:10:17;-0.90;99.90
18191;DHT22;47004;51.366;12.348;2023-02-28T04:12:19;-0.90;99.90
18191;DHT22;47004;51.366;12.348;2023-02-28T04:14:23;-0.90;99.90
18191;DHT22;47004;51.366;12.348;2023-02-28T04:16:27;-0.80;99.90
18191;DHT22;47004;51.366;12.348;2023-02-28T04:18:29;-0.80;99.90
18191;DHT22;47004;51.366;12.348;2023-02-28T04:20:31;-0.80;99.90
18191;DHT22;47004;51.366;12.348;2023-02-28T04:22:33;-0.70;99.90
18191;DHT22;47004;51.366;12.348;2023-02-28T04:24:35;-0.80;99.90
18191;DHT22;47004;51.366;12.348;2023-02-28T04:26:39;-0.80;99.90
18191;DHT22;47004;51.366;12.348;2023-02-28T04:28:41;-0.70;99.90
18191;DHT22;47004;51.366;12.348;2023-02-28T04:30:43;-0.70;99.90
18191;DHT22;47004;51.366;12.348;2023-02-28T04:32:45;-0.70;99.90
18191;DHT22;47004;51.366;12.348;2023-02-28T04:34:47;-0.70;99.90
18191;DHT22;47004;51.366;12.348;2023-02-28T04:36:48;-0.60;99.90
18191;DHT22;47004;51.366;12.348;2023-02-28T04:38:51;-0.70;99.90
18191;DHT22;47004;51.366;12.348;2023-02-28T04:40:53;-0.70;99.90
18191;DHT22;47004;51.366;12.348;2023-02-28T04:42:56;-0.60;99.90
18191;DHT22;47004;51.366;12.348;2023-02-28T04:44:58;-0.70;99.90
18191;DHT22;47004;51.366;12.348;2023-02-28T04:47:03;-0.60;99.90
18191;DHT22;47004;51.366;12.348;2023-02-28T04:49:05;-0.60;99.90
18191;DHT22;47004;51.366;12.348;2023-02-28T04:51:09;-0.60;99.90
18191;DHT22;47004;51.366;12.348;2023-02-28T04:53:11;-0.60;99.90
18191;DHT22;47004;51.366;12.348;2023-02-28T04:55:13;-0.70;99.90
18191;DHT22;47004;51.366;12.348;2023-02-28T04:57:15;-0.70;99.90
18191;DHT22;47004;51.366;12.348;2023-02-28T04:59:18;-0.70;99.90
18191;DHT22;47004;51.366;12.348;2023-02-28T05:01:23;-0.80;99.90
18191;DHT22;47004;51.366;12.348;2023-02-28T05:03:25;-0.80;99.90
18191;DHT22;47004;51.366;12.348;2023-02-28T05:05:27;-0.80;99.90
18191;DHT22;47004;51.366;12.348;2023-02-28T05:07:29;-0.70;99.90
18191;DHT22;47004;51.366;12.348;2023-02-28T05:09:31;-0.90;99.90
18191;DHT22;47004;51.366;12.348;2023-02-28T05:11:35;-0.90;99.90
18191;DHT22;47004;51.366;12.348;2023-02-28T05:13:37;-0.90;99.90
18191;DHT22;47004;51.366;12.348;2023-02-28T05:15:41;-0.80;99.90
18191;DHT22;47004;51.366;12.348;2023-02-28T05:17:43;-0.80;99.90
18191;DHT22;47004;51.366;12.348;2023-02-28T05:19:49;-0.80;99.90
18191;DHT22;47004;51.366;12.348;2023-02-28T05:21:53;-0.80;99.90
18191;DHT22;47004;51.366;12.348;2023-02-28T05:23:57;-0.80;99.90
18191;DHT22;47004;51.366;12.348;2023-02-28T05:25:59;-0.80;99.90
18191;DHT22;47004;51.366;12.348;2023-02-28T05:28:01;-0.70;99.90
18191;DHT22;47004;51.366;12.348;2023-02-28T05:30:03;-0.90;99.90
18191;DHT22;47004;51.366;12.348;2023-02-28T05:32:09;-0.90;99.90
18191;DHT22;47004;51.366;12.348;2023-02-28T05:34:12;-0.90;99.90
18191;DHT22;47004;51.366;12.348;2023-02-28T05:36:16;-0.90;99.90
18191;DHT22;47004;51.366;12.348;2023-02-28T05:38:18;-0.90;99.90
18191;DHT22;47004;51.366;12.348;2023-02-28T05:40:20;-0.90;99.90
18191;DHT22;47004;51.366;12.348;2023-02-28T05:42:25;-0.90;99.90
18191;DHT22;47004;51.366;12.348;2023-02-28T05:44:27;-1.00;99.90
18191;DHT22;47004;51.366;12.348;2023-02-28T05:46:29;-1.00;99.90
18191;DHT22;47004;51.366;12.348;2023-02-28T05:48:35;-1.00;99.90
18191;DHT22;47004;51.366;12.348;2023-02-28T05:50:38;-1.00;99.90
18191;DHT22;47004;51.366;12.348;2023-02-28T05:52:40;-1.10;99.90
18191;DHT22;47004;51.366;12.348;2023-02-28T05:54:42;-1.10;99.90
18191;DHT22;47004;51.366;12.348;2023-02-28T05:56:44;-0.90;99.90
18191;DHT22;47004;51.366;12.348;2023-02-28T05:58:46;-1.10;99.90
18191;DHT22;47004;51.366;12.348;2023-02-28T06:00:48;-1.10;99.90
18191;DHT22;47004;51.366;12.348;2023-02-28T06:02:50;-1.20;99.90
18191;DHT22;47004;51.366;12.348;2023-02-28T06:04:58;-1.20;99.90
18191;DHT22;47004;51.366;12.348;2023-02-28T06:07:00;-1.20;99.90
18191;DHT22;47004;51.366;12.348;2023-02-28T06:09:02;-1.20;99.90
18191;DHT22;47004;51.366;12.348;2023-02-28T06:11:05;-1.20;99.90
18191;DHT22;47004;51.366;12.348;2023-02-28T06:13:08;-1.20;99.90
18191;DHT22;47004;51.366;12.348;2023-02-28T06:15:12;-1.20;99.90
18191;DHT22;47004;51.366;12.348;2023-02-28T06:17:14;-1.00;99.90
18191;DHT22;47004;51.366;12.348;2023-02-28T06:19:17;-1.20;99.90
18191;DHT22;47004;51.366;12.348;2023-02-28T06:21:23;-1.30;99.90
18191;DHT22;47004;51.366;12.348;2023-02-28T06:23:28;-1.10;99.90
18191;DHT22;47004;51.366;12.348;2023-02-28T06:25:32;-1.30;99.90
18191;DHT22;47004;51.366;12.348;2023-02-28T06:27:34;-1.30;99.90
18191;DHT22;47004;51.366;12.348;2023-02-28T06:29:36;-1.30;99.90
18191;DHT22;47004;51.366;12.348;2023-02-28T06:31:40;-1.20;99.90
18191;DHT22;47004;51.366;12.348;2023-02-28T06:33:42;-1.30;99.90
18191;DHT22;47004;51.366;12.348;2023-02-28T06:35:50;-1.40;99.90
18191;DHT22;47004;51.366;12.348;2023-02-28T06:37:53;-1.30;99.90
18191;DHT22;47004;51.366;12.348;2023-02-28T06:39:57;-1.40;99.90
18191;DHT22;47004;51.366;12.348;2023-02-28T06:42:03;-1.40;99.90
18191;DHT22;47004;51.366;12.348;2023-02-28T06:44:10;-1.40;99.90
18191;DHT22;47004;51.366;12.348;2023-02-28T06:46:15;-1.40;99.90
18191;DHT22;47004;51.366;12.348;2023-02-28T06:48:17;-1.40;99.90
18191;DHT22;47004;51.366;12.348;2023-02-28T06:50:19;-1.40;99.90
18191;DHT22;47004;51.366;12.348;2023-02-28T06:52:21;-1.40;99.90
18191;DHT22;47004;51.366;12.348;2023-02-28T06:54:25;-1.40;99.90
18191;DHT22;47004;51.366;12.348;2023-02-28T06:56:27;-1.40;99.90
18191;DHT22;47004;51.366;12.348;2023-02-28T06:58:29;-0.80;99.90
18191;DHT22;47004;51.366;12.348;2023-02-28T07:00:31;-1.40;99.90
18191;DHT22;47004;51.366;12.348;2023-02-28T07:02:35;-1.40;99.90
18191;DHT22;47004;51.366;12.348;2023-02-28T07:04:36;-1.30;99.90
18191;DHT22;47004;51.366;12.348;2023-02-28T07:06:41;-1.40;99.90
18191;DHT22;47004;51.366;12.348;2023-02-28T07:08:48;-1.40;99.90
18191;DHT22;47004;51.366;12.348;2023-02-28T07:10:53;-1.40;99.90
18191;DHT22;47004;51.366;12.348;2023-02-28T07:12:55;-1.40;99.90
18191;DHT22;47004;51.366;12.348;2023-02-28T07:14:58;-1.40;99.90
18191;DHT22;47004;51.366;12.348;2023-02-28T07:17:02;-1.40;99.90
18191;DHT22;47004;51.366;12.348;2023-02-28T07:19:07;-0.70;99.90
18191;DHT22;47004;51.366;12.348;2023-02-28T07:21:09;-1.30;99.90
18191;DHT22;47004;51.366;12.348;2023-02-28T07:23:11;-1.40;99.90
18191;DHT22;47004;51.366;12.348;2023-02-28T07:25:13;-1.30;99.90
18191;DHT22;47004;51.366;12.348;2023-02-28T07:27:17;-1.30;99.90
18191;DHT22;47004;51.366;12.348;2023-02-28T07:29:24;-1.30;99.90
18191;DHT22;47004;51.366;12.348;2023-02-28T07:31:26;-1.30;99.90
18191;DHT22;47004;51.366;12.348;2023-02-28T07:33:28;-1.30;99.90
18191;DHT22;47004;51.366;12.348;2023-02-28T07:35:30;-1.30;99.90
18191;DHT22;47004;51.366;12.348;2023-02-28T07:37:38;-1.20;99.90
18191;DHT22;47004;51.366;12.348;2023-02-28T07:39:45;-1.30;99.90
18191;DHT22;47004;51.366;12.348;2023-02-28T07:41:48;-1.20;99.90
18191;DHT22;47004;51.366;12.348;2023-02-28T07:43:53;-1.20;99.90
18191;DHT22;47004;51.366;12.348;2023-02-28T07:46:01;-1.20;99.90
18191;DHT22;47004;51.366;12.348;2023-02-28T07:48:03;-1.00;99.90
18191;DHT22;47004;51.366;12.348;2023-02-28T07:50:05;-1.20;99.90
18191;DHT22;47004;51.366;12.348;2023-02-28T07:52:11;-1.20;99.90
18191;DHT22;47004;51.366;12.348;2023-02-28T07:54:13;-1.10;99.90
18191;DHT22;47004;51.366;12.348;2023-02-28T07:56:15;-1.10;99.90
18191;DHT22;47004;51.366;12.348;2023-02-28T07:58:17;-1.10;99.90
18191;DHT22;47004;51.366;12.348;2023-02-28T08:00:22;-1.10;99.90
18191;DHT22;47004;51.366;12.348;2023-02-28T08:02:27;-1.10;99.90
18191;DHT22;47004;51.366;12.348;2023-02-28T08:04:32;-1.10;99.90
18191;DHT22;47004;51.366;12.348;2023-02-28T08:06:34;-1.00;99.90
18191;DHT22;47004;51.366;12.348;2023-02-28T08:08:36;-1.00;99.90
18191;DHT22;47004;51.366;12.348;2023-02-28T08:10:46;-0.90;99.90
18191;DHT22;47004;51.366;12.348;2023-02-28T08:12:48;-0.90;99.90
18191;DHT22;47004;51.366;12.348;2023-02-28T08:14:58;-0.80;99.90
18191;DHT22;47004;51.366;12.348;2023-02-28T08:17:01;-0.80;99.90
18191;DHT22;47004;51.366;12.348;2023-02-28T08:19:05;-0.70;99.90
18191;DHT22;47004;51.366;12.348;2023-02-28T08:21:11;-0.70;99.90
18191;DHT22;47004;51.366;12.348;2023-02-28T08:23:19;-0.70;99.90
18191;DHT22;47004;51.366;12.348;2023-02-28T08:25:21;-0.70;99.90
18191;DHT22;47004;51.366;12.348;2023-02-28T08:27:28;-0.70;99.90
18191;DHT22;47004;51.366;12.348;2023-02-28T08:29:37;-0.70;99.90
18191;DHT22;47004;51.366;12.348;2023-02-28T08:31:42;-0.60;99.90
18191;DHT22;47004;51.366;12.348;2023-02-28T08:33:52;-0.60;99.90
18191;DHT22;47004;51.366;12.348;2023-02-28T08:36:00;-0.50;99.90
18191;DHT22;47004;51.366;12.348;2023-02-28T08:38:04;-0.50;99.90
18191;DHT22;47004;51.366;12.348;2023-02-28T08:40:08;-0.40;99.90
18191;DHT22;47004;51.366;12.348;2023-02-28T08:42:10;-0.40;99.90
18191;DHT22;47004;51.366;12.348;2023-02-28T08:44:12;-0.30;99.90
18191;DHT22;47004;51.366;12.348;2023-02-28T08:46:14;-0.30;99.90
18191;DHT22;47004;51.366;12.348;2023-02-28T08:48:16;-0.30;99.90
18191;DHT22;47004;51.366;12.348;2023-02-28T08:50:20;-0.20;99.90
18191;DHT22;47004;51.366;12.348;2023-02-28T08:52:29;-0.20;99.90
18191;DHT22;47004;51.366;12.348;2023-02-28T08:54:31;-0.10;99.90
18191;DHT22;47004;51.366;12.348;2023-02-28T08:56:34;-0.10;99.90
18191;DHT22;47004;51.366;12.348;2023-02-28T08:58:37;-0.10;99.90
18191;DHT22;47004;51.366;12.348;2023-02-28T09:00:41;0.00;99.90
18191;DHT22;47004;51.366;12.348;2023-02-28T09:02:43;0.00;99.90
18191;DHT22;47004;51.366;12.348;2023-02-28T09:04:48;0.10;99.90
18191;DHT22;47004;51.366;12.348;2023-02-28T09:06:54;0.10;99.90
18191;DHT22;47004;51.366;12.348;2023-02-28T09:08:57;0.20;99.90
18191;DHT22;47004;51.366;12.348;2023-02-28T09:11:01;0.20;99.90
18191;DHT22;47004;51.366;12.348;2023-02-28T09:13:04;0.30;99.90
18191;DHT22;47004;51.366;12.348;2023-02-28T09:15:07;0.30;99.90
18191;DHT22;47004;51.366;12.348;2023-02-28T09:17:09;0.30;99.90
18191;DHT22;47004;51.366;12.348;2023-02-28T09:19:11;0.30;99.90
18191;DHT22;47004;51.366;12.348;2023-02-28T09:21:15;0.40;99.90
18191;DHT22;47004;51.366;12.348;2023-02-28T09:23:19;0.50;99.90
18191;DHT22;47004;51.366;12.348;2023-02-28T09:25:21;0.50;99.90
18191;DHT22;47004;51.366;12.348;2023-02-28T09:27:23;0.60;99.90
18191;DHT22;47004;51.366;12.348;2023-02-28T09:29:25;0.60;99.90
18191;DHT22;47004;51.366;12.348;2023-02-28T09:31:28;0.70;99.90
18191;DHT22;47004;51.366;12.348;2023-02-28T09:33:30;0.70;99.90
18191;DHT22;47004;51.366;12.348;2023-02-28T09:35:32;0.80;99.90
18191;DHT22;47004;51.366;12.348;2023-02-28T09:37:34;0.90;99.90
18191;DHT22;47004;51.366;12.348;2023-02-28T09:39:37;1.00;99.90
18191;DHT22;47004;51.366;12.348;2023-02-28T09:41:41;1.10;99.90
18191;DHT22;47004;51.366;12.348;2023-02-28T09:43:51;1.10;99.90
18191;DHT22;47004;51.366;12.348;2023-02-28T09:45:59;1.20;99.90
18191;DHT22;47004;51.366;12.348;2023-02-28T09:48:04;1.20;99.90
18191;DHT22;47004;51.366;12.348;2023-02-28T09:50:28;1.30;99.90
18191;DHT22;47004;51.366;12.348;2023-02-28T09:52:36;1.40;99.90
18191;DHT22;47004;51.366;12.348;2023-02-28T09:54:40;1.50;99.90
18191;DHT22;47004;51.366;12.348;2023-02-28T09:56:49;1.60;99.90
18191;DHT22;47004;51.366;12.348;2023-02-28T09:58:56;1.70;99.90
18191;DHT22;47004;51.366;12.348;2023-02-28T10:01:03;1.70;99.90
18191;DHT22;47004;51.366;12.348;2023-02-28T10:05:39;1.80;99.90
18191;DHT22;47004;51.366;12.348;2023-02-28T10:07:54;1.80;99.90
18191;DHT22;47004;51.366;12.348;2023-02-28T10:10:04;1.90;99.90
18191;DHT22;47004;51.366;12.348;2023-02-28T10:12:09;1.90;99.90
18191;DHT22;47004;51.366;12.348;2023-02-28T10:14:16;2.10;99.90
18191;DHT22;47004;51.366;12.348;2023-02-28T10:16:24;2.00;99.90
18191;DHT22;47004;51.366;12.348;2023-02-28T10:18:30;2.00;99.90
18191;DHT22;47004;51.366;12.348;2023-02-28T10:20:39;2.10;99.90
18191;DHT22;47004;51.366;12.348;2023-02-28T10:22:49;2.20;99.90
18191;DHT22;47004;51.366;12.348;2023-02-28T10:24:57;2.20;99.90
18191;DHT22;47004;51.366;12.348;2023-02-28T10:27:13;2.20;99.90
18191;DHT22;47004;51.366;12.348;2023-02-28T10:29:15;2.30;99.90
18191;DHT22;47004;51.366;12.348;2023-02-28T10:31:19;2.30;99.90
18191;DHT22;47004;51.366;12.348;2023-02-28T10:33:27;2.40;99.90
18191;DHT22;47004;51.366;12.348;2023-02-28T10:35:29;2.50;99.90
18191;DHT22;47004;51.366;12.348;2023-02-28T10:37:35;2.50;99.90
18191;DHT22;47004;51.366;12.348;2023-02-28T10:39:41;2.60;99.90
18191;DHT22;47004;51.366;12.348;2023-02-28T10:41:48;2.60;99.90
18191;DHT22;47004;51.366;12.348;2023-02-28T10:43:51;2.70;99.90
18191;DHT22;47004;51.366;12.348;2023-02-28T10:45:57;2.80;99.90
18191;DHT22;47004;51.366;12.348;2023-02-28T10:48:02;2.80;99.90
18191;DHT22;47004;51.366;12.348;2023-02-28T10:50:05;2.90;99.90
18191;DHT22;47004;51.366;12.348;2023-02-28T10:52:09;3.00;99.90
18191;DHT22;47004;51.366;12.348;2023-02-28T10:54:16;3.00;99.90
18191;DHT22;47004;51.366;12.348;2023-02-28T10:56:19;3.10;99.90
18191;DHT22;47004;51.366;12.348;2023-02-28T10:58:23;3.10;99.90
18191;DHT22;47004;51.366;12.348;2023-02-28T11:00:33;3.20;99.90
18191;DHT22;47004;51.366;12.348;2023-02-28T11:02:37;3.30;99.90
18191;DHT22;47004;51.366;12.348;2023-02-28T11:04:41;3.40;99.90
18191;DHT22;47004;51.366;12.348;2023-02-28T11:06:43;3.40;99.90
18191;DHT22;47004;51.366;12.348;2023-02-28T11:08:53;3.50;99.90
18191;DHT22;47004;51.366;12.348;2023-02-28T11:11:03;3.60;99.90
18191;DHT22;47004;51.366;12.348;2023-02-28T11:13:28;3.70;99.90
18191;DHT22;47004;51.366;12.348;2023-02-28T11:15:39;3.80;99.90
18191;DHT22;47004;51.366;12.348;2023-02-28T11:17:42;3.90;99.90
18191;DHT22;47004;51.366;12.348;2023-02-28T11:19:46;4.00;99.90
18191;DHT22;47004;51.366;12.348;2023-02-28T11:21:54;4.10;99.90
18191;DHT22;47004;51.366;12.348;2023-02-28T11:24:02;4.30;99.90
18191;DHT22;47004;51.366;12.348;2023-02-28T11:26:08;4.30;99.90
18191;DHT22;47004;51.366;12.348;2023-02-28T11:28:25;4.40;99.90
18191;DHT22;47004;51.366;12.348;2023-02-28T11:30:31;4.60;99.90
18191;DHT22;47004;51.366;12.348;2023-02-28T11:32:48;4.60;99.90
18191;DHT22;47004;51.366;12.348;2023-02-28T11:35:01;4.80;99.90
18191;DHT22;47004;51.366;12.348;2023-02-28T11:37:05;4.90;99.90
18191;DHT22;47004;51.366;12.348;2023-02-28T11:39:11;5.00;99.90
18191;DHT22;47004;51.366;12.348;2023-02-28T11:41:37;5.10;99.90
18191;DHT22;47004;51.366;12.348;2023-02-28T11:43:59;5.20;99.90
18191;DHT22;47004;51.366;12.348;2023-02-28T11:46:15;5.30;99.90
18191;DHT22;47004;51.366;12.348;2023-02-28T11:48:25;5.40;99.90
18191;DHT22;47004;51.366;12.348;2023-02-28T11:50:42;5.50;99.90
18191;DHT22;47004;51.366;12.348;2023-02-28T11:52:53;5.70;99.90
18191;DHT22;47004;51.366;12.348;2023-02-28T11:55:06;5.70;99.90
18191;DHT22;47004;51.366;12.348;2023-02-28T11:57:22;5.90;99.90
18191;DHT22;47004;51.366;12.348;2023-02-28T11:59:42;6.00;99.90
18191;DHT22;47004;51.366;12.348;2023-02-28T12:02:14;6.20;99.90
18191;DHT22;47004;51.366;12.348;2023-02-28T12:04:25;6.60;99.90
18191;DHT22;47004;51.366;12.348;2023-02-28T12:06:32;6.60;99.90
18191;DHT22;47004;51.366;12.348;2023-02-28T12:08:53;6.80;99.90
18191;DHT22;47004;51.366;12.348;2023-02-28T12:11:05;7.10;99.90
18191;DHT22;47004;51.366;12.348;2023-02-28T12:13:16;7.40;99.90
18191;DHT22;47004;51.366;12.348;2023-02-28T12:15:42;7.60;99.90
18191;DHT22;47004;51.366;12.348;2023-02-28T12:17:57;7.90;99.90
18191;DHT22;47004;51.366;12.348;2023-02-28T12:20:12;8.20;99.90
18191;DHT22;47004;51.366;12.348;2023-02-28T12:22:29;8.40;99.90
18191;DHT22;47004;51.366;12.348;2023-02-28T12:27:03;8.90;99.90
18191;DHT22;47004;51.366;12.348;2023-02-28T12:29:12;9.30;99.90
18191;DHT22;47004;51.366;12.348;2023-02-28T12:31:20;9.60;99.90
18191;DHT22;47004;51.366;12.348;2023-02-28T12:33:27;9.80;99.90
18191;DHT22;47004;51.366;12.348;2023-02-28T12:35:36;10.00;99.90
18191;DHT22;47004;51.366;12.348;2023-02-28T12:37:41;10.30;99.90
18191;DHT22;47004;51.366;12.348;2023-02-28T12:39:46;10.50;99.90
18191;DHT22;47004;51.366;12.348;2023-02-28T12:41:54;10.70;98.10
18191;DHT22;47004;51.366;12.348;2023-02-28T12:44:01;10.90;73.20
18191;DHT22;47004;51.366;12.348;2023-02-28T12:46:09;11.10;84.20
18191;DHT22;47004;51.366;12.348;2023-02-28T12:48:16;11.30;78.90
18191;DHT22;47004;51.366;12.348;2023-02-28T12:50:21;11.50;69.10
18191;DHT22;47004;51.366;12.348;2023-02-28T12:52:29;11.70;56.20
18191;DHT22;47004;51.366;12.348;2023-02-28T12:54:38;11.90;56.00
18191;DHT22;47004;51.366;12.348;2023-02-28T12:56:49;12.10;58.50
18191;DHT22;47004;51.366;12.348;2023-02-28T12:58:56;12.30;64.40
18191;DHT22;47004;51.366;12.348;2023-02-28T13:01:24;12.50;52.30
18191;DHT22;47004;51.366;12.348;2023-02-28T13:03:49;12.60;61.80
18191;DHT22;47004;51.366;12.348;2023-02-28T13:08:59;12.90;52.10
18191;DHT22;47004;51.366;12.348;2023-02-28T13:11:01;13.00;48.80
18191;DHT22;47004;51.366;12.348;2023-02-28T13:13:03;13.10;47.50
18191;DHT22;47004;51.366;12.348;2023-02-28T13:15:17;13.10;46.60
18191;DHT22;47004;51.366;12.348;2023-02-28T13:17:24;13.20;47.00
18191;DHT22;47004;51.366;12.348;2023-02-28T13:19:28;13.40;46.70